Terminal Aerodrome Forecast
Issued by NWS Melbourne, FL

Home | Current Version | Previous Version | Text Only | Print | Product List | Glossary On
Versions: 1 2 3 4 5 6 7 8 9 10 11 12 13 14 15 16 17 18 19 20 21
000
FTUS42 KMLB 290500 RRA
TAFVRB
TAF
KVRB 290547Z 2906/3006 19003KT P6SM FEW030 SCT050
     FM290800 00000KT 5SM BR FEW010 BKN040
      TEMPO 2909/2912 2SM BR BKN008
     FM291400 21006KT P6SM SCT020
     FM291900 15008KT P6SM SCT040 SCT250
     FM300000 19005KT P6SM SCT040 BKN250=

USA.gov is the U.S. government's official web portal to all federal, state and local government web resources and services.